createdAt,value
2018-04-22T00:00:43.688Z,6.89
2018-04-22T00:01:43.747Z,6.91
2018-04-22T00:02:43.722Z,6.90
2018-04-22T00:03:43.636Z,6.91
2018-04-22T00:04:43.688Z,6.90
2018-04-22T00:05:43.690Z,6.91
2018-04-22T00:06:43.691Z,6.90
2018-04-22T00:07:43.751Z,6.86
2018-04-22T00:08:43.734Z,6.84
2018-04-22T00:09:43.662Z,6.81
2018-04-22T00:10:43.758Z,6.79
2018-04-22T00:11:43.764Z,6.78
2018-04-22T00:12:43.723Z,6.77
2018-04-22T00:13:43.768Z,6.75
2018-04-22T00:14:43.755Z,6.74
2018-04-22T00:15:43.727Z,6.71
2018-04-22T00:16:43.765Z,6.72
2018-04-22T00:17:43.761Z,6.67
2018-04-22T00:18:43.675Z,6.77
2018-04-22T00:19:43.680Z,6.84
2018-04-22T00:20:43.713Z,6.90
2018-04-22T00:21:43.711Z,7.00
2018-04-22T00:22:43.718Z,6.98
2018-04-22T00:23:43.713Z,6.93
2018-04-22T00:24:43.784Z,6.87
2018-04-22T00:25:43.708Z,6.82
2018-04-22T00:26:43.712Z,6.75
2018-04-22T00:27:43.710Z,6.75
2018-04-22T00:28:43.717Z,6.72
2018-04-22T00:29:43.784Z,6.68
2018-04-22T00:30:43.748Z,6.64
2018-04-22T00:31:43.802Z,6.59
2018-04-22T00:32:43.804Z,6.56
2018-04-22T00:33:43.804Z,6.55
2018-04-22T00:34:43.756Z,6.52
2018-04-22T00:35:43.783Z,6.51
2018-04-22T00:36:43.702Z,6.48
2018-04-22T00:37:43.819Z,6.47
2018-04-22T00:38:43.823Z,6.45
2018-04-22T00:39:43.818Z,6.43
2018-04-22T00:40:43.844Z,6.40
2018-04-22T00:41:43.705Z,6.37
2018-04-22T00:42:43.824Z,6.41
2018-04-22T00:43:43.694Z,6.40
2018-04-22T00:44:43.788Z,6.37
2018-04-22T00:45:43.793Z,6.37
2018-04-22T00:46:43.752Z,6.37
2018-04-22T00:47:43.689Z,6.34
2018-04-22T00:48:43.757Z,6.31
2018-04-22T00:49:43.830Z,6.31
2018-04-22T00:50:43.756Z,6.31
2018-04-22T00:51:43.713Z,6.31
2018-04-22T00:52:43.770Z,6.27
2018-04-22T00:53:43.770Z,6.27
2018-04-22T00:54:43.761Z,6.27
2018-04-22T00:55:43.755Z,6.29
2018-04-22T00:56:43.741Z,6.29
2018-04-22T00:57:43.817Z,6.26
2018-04-22T00:58:43.831Z,6.30
2018-04-22T00:59:43.765Z,6.44
2018-04-22T01:00:43.761Z,6.51
2018-04-22T01:01:43.803Z,6.47
2018-04-22T01:02:43.733Z,6.45
2018-04-22T01:03:43.805Z,6.45
2018-04-22T01:04:43.803Z,6.44
2018-04-22T01:05:43.742Z,6.45
2018-04-22T01:06:43.734Z,6.41
2018-04-22T01:07:43.812Z,6.38
2018-04-22T01:08:43.690Z,6.33
2018-04-22T01:09:43.741Z,6.30
2018-04-22T01:10:43.859Z,6.26
2018-04-22T01:11:43.711Z,6.25
2018-04-22T01:12:43.865Z,6.19
2018-04-22T01:13:43.714Z,6.18
2018-04-22T01:14:43.856Z,6.16
2018-04-22T01:15:43.866Z,6.14
2018-04-22T01:16:43.848Z,6.14
2018-04-22T01:17:43.846Z,6.15
2018-04-22T01:18:43.835Z,6.14
2018-04-22T01:19:43.731Z,6.31
2018-04-22T01:20:43.820Z,6.38
2018-04-22T01:21:43.709Z,6.31
2018-04-22T01:22:43.747Z,6.29
2018-04-22T01:23:43.840Z,6.25
2018-04-22T01:24:43.751Z,6.22
2018-04-22T01:25:43.818Z,6.18
2018-04-22T01:26:43.920Z,6.11
2018-04-22T01:27:43.754Z,6.02
2018-04-22T01:28:43.825Z,5.99
2018-04-22T01:29:43.757Z,5.93
2018-04-22T01:30:43.733Z,5.93
2018-04-22T01:31:43.819Z,5.92
2018-04-22T01:32:43.782Z,5.91
2018-04-22T01:33:43.737Z,5.92
2018-04-22T01:34:43.819Z,5.89
2018-04-22T01:35:43.734Z,5.91
2018-04-22T01:36:43.717Z,6.02
2018-04-22T01:37:43.700Z,6.03
2018-04-22T01:38:43.823Z,6.11
2018-04-22T01:39:43.735Z,6.18
2018-04-22T01:40:43.796Z,6.12
2018-04-22T01:41:43.869Z,6.09
2018-04-22T01:42:43.851Z,6.02
2018-04-22T01:43:43.831Z,6.02
2018-04-22T01:44:43.810Z,6.00
2018-04-22T01:45:43.876Z,6.02
2018-04-22T01:46:43.848Z,6.03
2018-04-22T01:47:43.758Z,6.02
2018-04-22T01:48:43.872Z,5.97
2018-04-22T01:49:43.834Z,5.91
2018-04-22T01:50:43.807Z,5.86
2018-04-22T01:51:43.762Z,5.81
2018-04-22T01:52:43.804Z,5.79
2018-04-22T01:53:43.895Z,5.77
2018-04-22T01:54:43.860Z,5.74
2018-04-22T01:55:43.839Z,5.71
2018-04-22T01:56:43.766Z,5.70
2018-04-22T01:57:43.913Z,5.71
2018-04-22T01:58:43.810Z,5.71
2018-04-22T01:59:43.809Z,5.74
2018-04-22T02:00:43.820Z,5.70
2018-04-22T02:01:43.869Z,5.71
2018-04-22T02:02:43.870Z,5.73
2018-04-22T02:03:43.787Z,5.77
2018-04-22T02:04:43.842Z,5.79
2018-04-22T02:05:43.807Z,5.81
2018-04-22T02:06:43.749Z,5.79
2018-04-22T02:07:43.808Z,5.77
2018-04-22T02:08:43.819Z,5.77
2018-04-22T02:09:43.848Z,5.75
2018-04-22T02:10:43.704Z,5.78
2018-04-22T02:11:43.867Z,5.84
2018-04-22T02:12:43.757Z,5.91
2018-04-22T02:13:43.799Z,5.88
2018-04-22T02:14:43.798Z,5.84
2018-04-22T02:15:43.708Z,5.85
2018-04-22T02:16:43.713Z,5.82
2018-04-22T02:17:43.704Z,5.77
2018-04-22T02:18:43.805Z,5.73
2018-04-22T02:19:43.802Z,5.68
2018-04-22T02:20:43.856Z,5.63
2018-04-22T02:21:43.783Z,5.63
2018-04-22T02:22:43.859Z,5.71
2018-04-22T02:23:43.787Z,5.74
2018-04-22T02:24:43.795Z,5.77
2018-04-22T02:25:43.793Z,5.82
2018-04-22T02:26:43.859Z,5.82
2018-04-22T02:27:43.803Z,5.82
2018-04-22T02:28:43.789Z,5.78
2018-04-22T02:29:43.823Z,5.78
2018-04-22T02:30:43.820Z,5.73
2018-04-22T02:31:43.766Z,5.70
2018-04-22T02:32:43.767Z,5.70
2018-04-22T02:33:43.850Z,5.70
2018-04-22T02:34:43.772Z,5.64
2018-04-22T02:35:43.773Z,5.60
2018-04-22T02:36:43.892Z,5.55
2018-04-22T02:37:43.901Z,5.55
2018-04-22T02:38:43.830Z,5.51
2018-04-22T02:39:43.866Z,5.49
2018-04-22T02:40:43.797Z,5.52
2018-04-22T02:41:43.801Z,5.52
2018-04-22T02:42:43.866Z,5.52
2018-04-22T02:43:43.829Z,5.52
2018-04-22T02:44:43.860Z,5.57
2018-04-22T02:45:43.872Z,5.60
2018-04-22T02:46:43.870Z,5.59
2018-04-22T02:47:43.806Z,5.60
2018-04-22T02:48:43.874Z,5.62
2018-04-22T02:49:43.808Z,5.68
2018-04-22T02:50:43.873Z,5.70
2018-04-22T02:51:43.911Z,5.67
2018-04-22T02:52:43.778Z,5.64
2018-04-22T02:53:43.871Z,5.63
2018-04-22T02:54:43.871Z,5.60
2018-04-22T02:55:43.891Z,5.59
2018-04-22T02:56:43.836Z,5.64
2018-04-22T02:57:43.843Z,5.64
2018-04-22T02:58:43.882Z,5.66
2018-04-22T02:59:43.879Z,5.66
2018-04-22T03:00:43.897Z,5.63
2018-04-22T03:01:43.853Z,5.66
2018-04-22T03:02:43.838Z,5.62
2018-04-22T03:03:43.805Z,5.56
2018-04-22T03:04:43.884Z,5.62
2018-04-22T03:05:43.911Z,5.62
2018-04-22T03:06:43.851Z,5.60
2018-04-22T03:07:43.779Z,5.56
2018-04-22T03:08:43.785Z,5.52
2018-04-22T03:09:43.845Z,5.52
2018-04-22T03:10:43.819Z,5.49
2018-04-22T03:11:43.821Z,5.44
2018-04-22T03:12:43.883Z,5.41
2018-04-22T03:13:43.822Z,5.38
2018-04-22T03:14:43.817Z,5.35
2018-04-22T03:15:43.815Z,5.42
2018-04-22T03:16:43.889Z,5.44
2018-04-22T03:17:43.819Z,5.42
2018-04-22T03:18:43.818Z,5.45
2018-04-22T03:19:43.892Z,5.42
2018-04-22T03:20:43.883Z,5.42
2018-04-22T03:21:43.841Z,5.45
2018-04-22T03:22:43.883Z,5.44
2018-04-22T03:23:43.850Z,5.38
2018-04-22T03:24:43.885Z,5.38
2018-04-22T03:25:43.776Z,5.49
2018-04-22T03:26:43.885Z,5.59
2018-04-22T03:27:43.886Z,5.60
2018-04-22T03:28:43.836Z,5.59
2018-04-22T03:29:43.778Z,5.57
2018-04-22T03:30:43.915Z,5.53
2018-04-22T03:31:43.894Z,5.48
2018-04-22T03:32:43.862Z,5.46
2018-04-22T03:33:43.857Z,5.44
2018-04-22T03:34:43.895Z,5.42
2018-04-22T03:35:43.870Z,5.37
2018-04-22T03:36:43.893Z,5.35
2018-04-22T03:37:43.916Z,5.29
2018-04-22T03:38:43.899Z,5.25
2018-04-22T03:39:43.896Z,5.27
2018-04-22T03:40:43.809Z,5.21
2018-04-22T03:41:43.899Z,5.19
2018-04-22T03:42:43.938Z,5.16
2018-04-22T03:43:43.868Z,5.15
2018-04-22T03:44:43.991Z,5.15
2018-04-22T03:45:43.866Z,5.16
2018-04-22T03:46:43.934Z,5.19
2018-04-22T03:47:43.937Z,5.23
2018-04-22T03:48:43.979Z,5.25
2018-04-22T03:49:43.835Z,5.23
2018-04-22T03:50:43.827Z,5.26
2018-04-22T03:51:43.931Z,5.38
2018-04-22T03:52:43.874Z,5.44
2018-04-22T03:53:43.830Z,5.44
2018-04-22T03:54:43.948Z,5.42
2018-04-22T03:55:43.950Z,5.41
2018-04-22T03:56:43.879Z,5.40
2018-04-22T03:57:43.836Z,5.37
2018-04-22T03:58:43.911Z,5.34
2018-04-22T03:59:43.820Z,5.33
2018-04-22T04:00:43.883Z,5.30
2018-04-22T04:01:43.942Z,5.27
2018-04-22T04:02:43.890Z,5.29
2018-04-22T04:03:43.859Z,5.33
2018-04-22T04:04:43.857Z,5.30
2018-04-22T04:05:43.889Z,5.34
2018-04-22T04:06:43.838Z,5.38
2018-04-22T04:07:43.922Z,5.40
2018-04-22T04:08:43.920Z,5.42
2018-04-22T04:09:43.879Z,5.42
2018-04-22T04:10:43.951Z,5.40
2018-04-22T04:11:43.922Z,5.37
2018-04-22T04:12:43.851Z,5.37
2018-04-22T04:13:43.927Z,5.35
2018-04-22T04:14:43.926Z,5.37
2018-04-22T04:15:43.926Z,5.37
2018-04-22T04:16:43.863Z,5.41
2018-04-22T04:17:43.860Z,5.52
2018-04-22T04:18:43.922Z,5.49
2018-04-22T04:19:43.859Z,5.46
2018-04-22T04:20:43.932Z,5.46
2018-04-22T04:21:43.819Z,5.45
2018-04-22T04:22:43.832Z,5.40
2018-04-22T04:23:43.890Z,5.37
2018-04-22T04:24:43.826Z,5.34
2018-04-22T04:25:43.882Z,5.34
2018-04-22T04:26:43.918Z,5.29
2018-04-22T04:27:43.808Z,5.27
2018-04-22T04:28:43.913Z,5.27
2018-04-22T04:29:43.919Z,5.26
2018-04-22T04:30:43.925Z,5.26
2018-04-22T04:31:43.905Z,5.33
2018-04-22T04:32:43.931Z,5.40
2018-04-22T04:33:43.959Z,5.46
2018-04-22T04:34:43.935Z,5.51
2018-04-22T04:35:43.935Z,5.48
2018-04-22T04:36:43.900Z,5.46
2018-04-22T04:37:43.962Z,5.46
2018-04-22T04:38:43.967Z,5.46
2018-04-22T04:39:43.903Z,5.48
2018-04-22T04:40:43.969Z,5.45
2018-04-22T04:41:43.960Z,5.45
2018-04-22T04:42:43.909Z,5.44
2018-04-22T04:43:43.962Z,5.45
2018-04-22T04:44:43.879Z,5.46
2018-04-22T04:45:43.909Z,5.46
2018-04-22T04:46:43.980Z,5.53
2018-04-22T04:47:43.942Z,5.60
2018-04-22T04:48:43.942Z,5.62
2018-04-22T04:49:43.978Z,5.62
2018-04-22T04:50:43.851Z,5.64
2018-04-22T04:51:43.946Z,5.66
2018-04-22T04:52:43.917Z,5.67
2018-04-22T04:53:43.979Z,5.67
2018-04-22T04:54:43.899Z,5.70
2018-04-22T04:55:43.904Z,5.74
2018-04-22T04:56:43.978Z,5.79
2018-04-22T04:57:43.928Z,5.89
2018-04-22T04:58:43.947Z,6.02
2018-04-22T04:59:43.949Z,6.09
2018-04-22T05:00:43.971Z,6.15
2018-04-22T05:01:43.970Z,6.15
2018-04-22T05:02:43.887Z,6.15
2018-04-22T05:03:43.954Z,6.19
2018-04-22T05:04:43.888Z,6.20
2018-04-22T05:05:43.955Z,6.22
2018-04-22T05:06:43.882Z,6.25
2018-04-22T05:07:43.885Z,6.25
2018-04-22T05:08:43.957Z,6.29
2018-04-22T05:09:43.957Z,6.30
2018-04-22T05:10:43.891Z,6.36
2018-04-22T05:11:43.862Z,6.40
2018-04-22T05:12:43.913Z,6.44
2018-04-22T05:13:43.980Z,6.48
2018-04-22T05:14:43.979Z,6.52
2018-04-22T05:15:43.859Z,6.59
2018-04-22T05:16:43.960Z,6.63
2018-04-22T05:17:43.959Z,6.71
2018-04-22T05:18:44.002Z,6.77
2018-04-22T05:19:43.979Z,6.84
2018-04-22T05:20:43.985Z,6.90
2018-04-22T05:21:43.967Z,6.94
2018-04-22T05:22:43.936Z,7.00
2018-04-22T05:23:43.869Z,7.05
2018-04-22T05:24:43.993Z,7.13
2018-04-22T05:25:43.934Z,7.18
2018-04-22T05:26:43.914Z,7.22
2018-04-22T05:27:43.986Z,7.27
2018-04-22T05:28:43.867Z,7.31
2018-04-22T05:29:43.927Z,7.37
2018-04-22T05:30:43.904Z,7.46
2018-04-22T05:31:43.972Z,7.53
2018-04-22T05:32:43.905Z,7.64
2018-04-22T05:33:43.903Z,7.70
2018-04-22T05:34:43.909Z,7.75
2018-04-22T05:35:43.975Z,7.79
2018-04-22T05:36:43.977Z,7.86
2018-04-22T05:37:43.976Z,7.97
2018-04-22T05:38:43.935Z,8.06
2018-04-22T05:39:43.992Z,8.12
2018-04-22T05:40:43.972Z,8.13
2018-04-22T05:41:43.866Z,8.19
2018-04-22T05:42:43.929Z,8.24
2018-04-22T05:43:43.845Z,8.28
2018-04-22T05:44:43.856Z,8.33
2018-04-22T05:45:43.844Z,8.39
2018-04-22T05:46:43.885Z,8.38
2018-04-22T05:47:43.864Z,8.45
2018-04-22T05:48:43.956Z,8.53
2018-04-22T05:49:43.847Z,8.58
2018-04-22T05:50:43.966Z,8.57
2018-04-22T05:51:43.997Z,8.57
2018-04-22T05:52:43.868Z,8.60
2018-04-22T05:53:43.940Z,8.61
2018-04-22T05:54:43.851Z,8.62
2018-04-22T05:55:43.988Z,8.65
2018-04-22T05:56:43.984Z,8.65
2018-04-22T05:57:43.981Z,8.65
2018-04-22T05:58:43.927Z,8.67
2018-04-22T05:59:43.895Z,8.68
2018-04-22T06:00:43.859Z,8.64
2018-04-22T06:01:43.984Z,8.61
2018-04-22T06:02:43.967Z,8.64
2018-04-22T06:03:43.984Z,8.67
2018-04-22T06:04:44.025Z,8.68
2018-04-22T06:05:43.948Z,8.80
2018-04-22T06:06:43.970Z,8.96
2018-04-22T06:07:43.957Z,9.09
2018-04-22T06:08:44.019Z,9.25
2018-04-22T06:09:43.994Z,9.39
2018-04-22T06:10:44.019Z,9.55
2018-04-22T06:11:43.965Z,9.69
2018-04-22T06:12:44.022Z,9.91
2018-04-22T06:13:44.017Z,10.11
2018-04-22T06:14:43.960Z,10.30
2018-04-22T06:15:44.028Z,10.45
2018-04-22T06:16:44.032Z,10.58
2018-04-22T06:17:44.034Z,10.63
2018-04-22T06:18:43.969Z,10.64
2018-04-22T06:19:43.996Z,10.68
2018-04-22T06:20:43.907Z,10.80
2018-04-22T06:21:44.042Z,10.95
2018-04-22T06:22:44.005Z,11.11
2018-04-22T06:23:44.036Z,11.16
2018-04-22T06:24:43.939Z,11.13
2018-04-22T06:25:44.030Z,11.03
2018-04-22T06:26:43.936Z,10.98
2018-04-22T06:27:44.003Z,10.97
2018-04-22T06:28:44.003Z,11.07
2018-04-22T06:29:44.006Z,11.17
2018-04-22T06:30:44.012Z,11.21
2018-04-22T06:31:44.013Z,11.35
2018-04-22T06:32:44.007Z,11.49
2018-04-22T06:33:44.017Z,11.64
2018-04-22T06:34:43.914Z,11.86
2018-04-22T06:35:43.978Z,12.01
2018-04-22T06:36:43.990Z,12.14
2018-04-22T06:37:43.993Z,12.35
2018-04-22T06:38:44.031Z,12.39
2018-04-22T06:39:44.022Z,12.33
2018-04-22T06:40:43.979Z,12.36
2018-04-22T06:41:44.020Z,12.44
2018-04-22T06:42:44.054Z,12.53
2018-04-22T06:43:44.038Z,12.55
2018-04-22T06:44:44.017Z,12.73
2018-04-22T06:45:43.974Z,12.94
2018-04-22T06:46:44.000Z,13.12
2018-04-22T06:47:44.036Z,13.28
2018-04-22T06:48:44.050Z,13.32
2018-04-22T06:49:44.062Z,13.35
2018-04-22T06:50:43.955Z,13.51
2018-04-22T06:51:43.991Z,13.70
2018-04-22T06:52:43.989Z,13.72
2018-04-22T06:53:44.003Z,13.68
2018-04-22T06:54:43.981Z,13.57
2018-04-22T06:55:44.041Z,13.76
2018-04-22T06:56:43.999Z,13.98
2018-04-22T06:57:43.987Z,14.18
2018-04-22T06:58:43.938Z,14.38
2018-04-22T06:59:44.051Z,14.49
2018-04-22T07:00:43.983Z,14.43
2018-04-22T07:01:44.056Z,14.31
2018-04-22T07:02:43.994Z,14.07
2018-04-22T07:03:43.999Z,14.15
2018-04-22T07:04:43.992Z,13.95
2018-04-22T07:05:43.935Z,13.88
2018-04-22T07:06:43.950Z,13.79
2018-04-22T07:07:43.998Z,13.62
2018-04-22T07:08:43.934Z,13.65
2018-04-22T07:09:43.991Z,13.57
2018-04-22T07:10:44.059Z,13.46
2018-04-22T07:11:44.035Z,13.31
2018-04-22T07:12:44.048Z,13.38
2018-04-22T07:13:44.040Z,13.51
2018-04-22T07:14:43.995Z,13.53
2018-04-22T07:15:44.055Z,13.73
2018-04-22T07:16:44.028Z,13.91
2018-04-22T07:17:43.975Z,14.04
2018-04-22T07:18:43.991Z,14.20
2018-04-22T07:19:43.974Z,14.33
2018-04-22T07:20:44.041Z,14.46
2018-04-22T07:21:44.117Z,14.44
2018-04-22T07:22:44.067Z,14.61
2018-04-22T07:23:44.074Z,14.61
2018-04-22T07:24:43.998Z,14.58
2018-04-22T07:25:43.960Z,14.55
2018-04-22T07:26:44.027Z,14.61
2018-04-22T07:27:44.012Z,14.71
2018-04-22T07:28:43.952Z,14.96
2018-04-22T07:29:44.080Z,15.25
2018-04-22T07:30:44.075Z,15.51
2018-04-22T07:31:43.961Z,15.62
2018-04-22T07:32:44.050Z,15.75
2018-04-22T07:33:44.042Z,15.91
2018-04-22T07:34:43.951Z,16.07
2018-04-22T07:35:44.003Z,16.31
2018-04-22T07:36:43.968Z,16.48
2018-04-22T07:37:44.037Z,16.65
2018-04-22T07:38:44.009Z,16.83
2018-04-22T07:39:44.002Z,17.08
2018-04-22T07:40:44.041Z,16.99
2018-04-22T07:41:44.053Z,17.28
2018-04-22T07:42:43.984Z,17.51
2018-04-22T07:43:44.093Z,17.83
2018-04-22T07:44:44.056Z,18.06
2018-04-22T07:45:44.056Z,18.10
2018-04-22T07:46:44.060Z,18.29
2018-04-22T07:47:44.013Z,18.12
2018-04-22T07:48:44.062Z,17.99
2018-04-22T07:49:43.993Z,17.88
2018-04-22T07:50:44.058Z,17.98
2018-04-22T07:51:44.004Z,18.06
2018-04-22T07:52:44.060Z,18.14
2018-04-22T07:53:44.013Z,18.24
2018-04-22T07:54:44.014Z,18.28
2018-04-22T07:55:44.047Z,18.28
2018-04-22T07:56:43.990Z,18.23
2018-04-22T07:57:43.965Z,17.87
2018-04-22T07:58:43.970Z,17.66
2018-04-22T07:59:44.057Z,17.51
2018-04-22T08:00:43.948Z,17.35
2018-04-22T08:01:44.061Z,17.26
2018-04-22T08:02:44.101Z,17.22
2018-04-22T08:03:44.038Z,17.03
2018-04-22T08:04:44.059Z,16.97
2018-04-22T08:05:44.023Z,16.85
2018-04-22T08:06:44.110Z,16.88
2018-04-22T08:07:44.037Z,16.90
2018-04-22T08:08:44.101Z,16.77
2018-04-22T08:09:44.037Z,16.74
2018-04-22T08:10:44.071Z,16.73
2018-04-22T08:11:44.099Z,16.70
2018-04-22T08:12:44.107Z,16.55
2018-04-22T08:13:44.012Z,16.48
2018-04-22T08:14:44.036Z,16.47
2018-04-22T08:15:44.074Z,16.48
2018-04-22T08:16:44.051Z,16.48
2018-04-22T08:17:44.037Z,16.47
2018-04-22T08:18:44.078Z,16.36
2018-04-22T08:19:43.978Z,16.27
2018-04-22T08:20:44.047Z,16.22
2018-04-22T08:21:44.035Z,16.22
2018-04-22T08:22:44.005Z,16.18
2018-04-22T08:23:43.980Z,16.16
2018-04-22T08:24:44.111Z,16.16
2018-04-22T08:25:44.078Z,16.18
2018-04-22T08:26:44.085Z,16.18
2018-04-22T08:27:44.056Z,16.17
2018-04-22T08:28:44.056Z,16.18
2018-04-22T08:29:44.044Z,16.18
2018-04-22T08:30:44.084Z,16.17
2018-04-22T08:31:44.083Z,16.13
2018-04-22T08:32:44.020Z,16.11
2018-04-22T08:33:44.025Z,16.11
2018-04-22T08:34:44.087Z,16.17
2018-04-22T08:35:44.030Z,16.25
2018-04-22T08:36:44.088Z,16.41
2018-04-22T08:37:44.027Z,16.66
2018-04-22T08:38:44.093Z,16.92
2018-04-22T08:39:44.020Z,17.16
2018-04-22T08:40:44.095Z,17.35
2018-04-22T08:41:44.050Z,17.60
2018-04-22T08:42:44.035Z,17.73
2018-04-22T08:43:44.073Z,17.76
2018-04-22T08:44:43.974Z,17.84
2018-04-22T08:45:44.085Z,17.84
2018-04-22T08:46:43.961Z,18.03
2018-04-22T08:47:44.074Z,18.20
2018-04-22T08:48:44.050Z,18.31
2018-04-22T08:49:44.077Z,18.57
2018-04-22T08:50:44.087Z,18.88
2018-04-22T08:51:44.118Z,19.05
2018-04-22T08:52:44.122Z,19.01
2018-04-22T08:53:44.098Z,18.88
2018-04-22T08:54:44.074Z,18.79
2018-04-22T08:55:44.041Z,18.69
2018-04-22T08:56:44.175Z,18.87
2018-04-22T08:57:44.135Z,18.92
2018-04-22T08:58:44.072Z,19.13
2018-04-22T08:59:44.082Z,19.39
2018-04-22T09:00:44.100Z,19.32
2018-04-22T09:01:44.106Z,19.44
2018-04-22T09:02:44.163Z,19.49
2018-04-22T09:03:44.104Z,19.72
2018-04-22T09:04:44.024Z,19.85
2018-04-22T09:05:44.106Z,19.79
2018-04-22T09:06:44.108Z,19.92
2018-04-22T09:07:44.105Z,20.14
2018-04-22T09:08:44.086Z,20.20
2018-04-22T09:09:44.082Z,20.10
2018-04-22T09:10:44.066Z,19.95
2018-04-22T09:11:44.013Z,20.01
2018-04-22T09:12:44.068Z,20.13
2018-04-22T09:13:44.113Z,20.32
2018-04-22T09:14:44.103Z,20.50
2018-04-22T09:15:44.105Z,20.70
2018-04-22T09:16:43.981Z,20.73
2018-04-22T09:17:44.103Z,20.88
2018-04-22T09:18:44.043Z,21.14
2018-04-22T09:19:44.103Z,21.31
2018-04-22T09:20:44.042Z,21.31
2018-04-22T09:21:44.140Z,21.18
2018-04-22T09:22:44.139Z,21.09
2018-04-22T09:23:44.143Z,20.65
2018-04-22T09:24:44.023Z,20.46
2018-04-22T09:25:44.146Z,20.41
2018-04-22T09:26:44.161Z,20.38
2018-04-22T09:27:44.097Z,20.43
2018-04-22T09:28:44.120Z,20.58
2018-04-22T09:29:44.122Z,20.46
2018-04-22T09:30:44.062Z,20.50
2018-04-22T09:31:44.097Z,20.46
2018-04-22T09:32:44.101Z,20.54
2018-04-22T09:33:44.169Z,20.57
2018-04-22T09:34:44.098Z,20.56
2018-04-22T09:35:44.097Z,20.64
2018-04-22T09:36:44.160Z,20.86
2018-04-22T09:37:44.097Z,21.18
2018-04-22T09:38:44.162Z,21.45
2018-04-22T09:39:44.097Z,21.68
2018-04-22T09:40:44.168Z,21.68
2018-04-22T09:41:44.153Z,21.69
2018-04-22T09:42:44.106Z,21.79
2018-04-22T09:43:44.163Z,21.90
2018-04-22T09:44:44.169Z,21.78
2018-04-22T09:45:44.033Z,21.78
2018-04-22T09:46:44.102Z,21.91
2018-04-22T09:47:44.203Z,21.87
2018-04-22T09:48:44.089Z,21.67
2018-04-22T09:49:44.142Z,21.56
2018-04-22T09:50:44.131Z,21.68
2018-04-22T09:51:44.172Z,21.84
2018-04-22T09:52:44.130Z,21.94
2018-04-22T09:53:44.065Z,22.02
2018-04-22T09:54:44.137Z,22.12
2018-04-22T09:55:44.204Z,22.17
2018-04-22T09:56:44.070Z,22.21
2018-04-22T09:57:44.141Z,22.38
2018-04-22T09:58:44.145Z,22.60
2018-04-22T09:59:44.139Z,22.56
2018-04-22T10:00:44.075Z,22.75
2018-04-22T10:01:44.072Z,22.91
2018-04-22T10:02:44.173Z,22.76
2018-04-22T10:03:44.144Z,22.88
2018-04-22T10:04:44.125Z,23.13
2018-04-22T10:05:44.140Z,23.04
2018-04-22T10:06:44.105Z,23.13
2018-04-22T10:07:44.048Z,23.15
2018-04-22T10:08:44.129Z,23.22
2018-04-22T10:09:44.098Z,23.09
2018-04-22T10:10:44.064Z,22.97
2018-04-22T10:11:44.150Z,23.06
2018-04-22T10:12:44.171Z,23.19
2018-04-22T10:13:44.153Z,23.26
2018-04-22T10:14:44.089Z,23.22
2018-04-22T10:15:44.155Z,23.42
2018-04-22T10:16:44.081Z,23.60
2018-04-22T10:17:44.155Z,23.87
2018-04-22T10:18:44.081Z,24.09
2018-04-22T10:19:44.084Z,24.34
2018-04-22T10:20:44.155Z,24.38
2018-04-22T10:21:44.122Z,24.31
2018-04-22T10:22:44.161Z,24.41
2018-04-22T10:23:44.213Z,24.45
2018-04-22T10:24:44.074Z,24.59
2018-04-22T10:25:44.058Z,24.83
2018-04-22T10:26:44.075Z,24.91
2018-04-22T10:27:44.132Z,24.59
2018-04-22T10:28:44.199Z,24.78
2018-04-22T10:29:44.157Z,25.06
2018-04-22T10:30:44.198Z,25.30
2018-04-22T10:31:44.127Z,25.26
2018-04-22T10:32:44.095Z,25.29
2018-04-22T10:33:44.099Z,25.30
2018-04-22T10:34:44.170Z,25.24
2018-04-22T10:35:44.094Z,25.26
2018-04-22T10:36:44.095Z,25.05
2018-04-22T10:37:44.211Z,24.89
2018-04-22T10:38:44.100Z,24.94
2018-04-22T10:39:44.165Z,24.90
2018-04-22T10:40:44.165Z,24.93
2018-04-22T10:41:44.167Z,24.93
2018-04-22T10:42:44.051Z,24.91
2018-04-22T10:43:44.098Z,25.09
2018-04-22T10:44:44.098Z,25.17
2018-04-22T10:45:44.097Z,25.33
2018-04-22T10:46:44.142Z,25.52
2018-04-22T10:47:44.176Z,25.60
2018-04-22T10:48:44.102Z,25.45
2018-04-22T10:49:44.181Z,25.29
2018-04-22T10:50:44.102Z,25.37
2018-04-22T10:51:44.103Z,25.46
2018-04-22T10:52:44.180Z,25.46
2018-04-22T10:53:44.105Z,25.33
2018-04-22T10:54:44.145Z,25.60
2018-04-22T10:55:44.174Z,25.75
2018-04-22T10:56:44.106Z,26.03
2018-04-22T10:57:44.106Z,26.03
2018-04-22T10:58:44.145Z,25.82
2018-04-22T10:59:44.106Z,25.88
2018-04-22T11:00:44.182Z,25.68
2018-04-22T11:01:44.279Z,25.81
2018-04-22T11:02:44.157Z,25.84
2018-04-22T11:03:44.211Z,25.66
2018-04-22T11:04:44.149Z,25.89
2018-04-22T11:05:44.179Z,26.17
2018-04-22T11:06:44.221Z,26.44
2018-04-22T11:07:44.220Z,26.58
2018-04-22T11:08:44.157Z,26.85
2018-04-22T11:09:44.206Z,26.99
2018-04-22T11:10:44.223Z,27.14
2018-04-22T11:11:44.249Z,26.99
2018-04-22T11:12:44.191Z,27.06
2018-04-22T11:13:44.198Z,26.66
2018-04-22T11:14:44.118Z,26.64
2018-04-22T11:15:44.194Z,26.72
2018-04-22T11:16:44.119Z,26.71
2018-04-22T11:17:44.118Z,26.58
2018-04-22T11:18:44.120Z,26.67
2018-04-22T11:19:44.139Z,26.58
2018-04-22T11:20:44.193Z,26.62
2018-04-22T11:21:44.122Z,26.55
2018-04-22T11:22:44.195Z,26.66
2018-04-22T11:23:44.200Z,26.86
2018-04-22T11:24:44.125Z,27.12
2018-04-22T11:25:44.199Z,27.18
2018-04-22T11:26:44.195Z,27.06
2018-04-22T11:27:44.126Z,26.99
2018-04-22T11:28:44.200Z,26.92
2018-04-22T11:29:44.199Z,26.95
2018-04-22T11:30:44.204Z,26.75
2018-04-22T11:31:44.130Z,26.82
2018-04-22T11:32:44.231Z,27.01
2018-04-22T11:33:44.180Z,27.23
2018-04-22T11:34:44.281Z,27.18
2018-04-22T11:35:44.240Z,27.19
2018-04-22T11:36:44.138Z,27.07
2018-04-22T11:37:44.168Z,27.17
2018-04-22T11:38:44.141Z,27.18
2018-04-22T11:39:44.180Z,27.08
2018-04-22T11:40:44.230Z,27.15
2018-04-22T11:41:44.245Z,27.33
2018-04-22T11:42:44.078Z,27.57
2018-04-22T11:43:44.128Z,27.54
2018-04-22T11:44:44.165Z,27.61
2018-04-22T11:45:44.113Z,27.85
2018-04-22T11:46:44.150Z,28.02
2018-04-22T11:47:44.105Z,28.28
2018-04-22T11:48:44.079Z,28.47
2018-04-22T11:49:44.128Z,28.18
2018-04-22T11:50:44.098Z,28.24
2018-04-22T11:51:44.204Z,28.36
2018-04-22T11:52:44.242Z,28.40
2018-04-22T11:53:44.213Z,28.36
2018-04-22T11:54:44.249Z,28.24
2018-04-22T11:55:44.168Z,27.91
2018-04-22T11:56:44.119Z,27.88
2018-04-22T11:57:44.249Z,27.68
2018-04-22T11:58:44.213Z,27.77
2018-04-22T11:59:44.190Z,27.99
2018-04-22T12:00:44.222Z,28.15
2018-04-22T12:01:44.177Z,28.00
2018-04-22T12:02:44.222Z,28.25
2018-04-22T12:03:44.118Z,28.37
2018-04-22T12:04:44.237Z,28.37
2018-04-22T12:05:44.180Z,28.20
2018-04-22T12:06:44.250Z,28.18
2018-04-22T12:07:44.219Z,28.20
2018-04-22T12:08:44.237Z,28.32
2018-04-22T12:09:44.246Z,28.43
2018-04-22T12:10:44.238Z,28.47
2018-04-22T12:11:44.182Z,28.51
2018-04-22T12:12:44.141Z,28.44
2018-04-22T12:13:44.248Z,28.26
2018-04-22T12:14:44.206Z,28.21
2018-04-22T12:15:44.244Z,28.17
2018-04-22T12:16:44.225Z,28.32
2018-04-22T12:17:44.189Z,28.42
2018-04-22T12:18:44.240Z,28.50
2018-04-22T12:19:44.190Z,28.76
2018-04-22T12:20:44.248Z,28.87
2018-04-22T12:21:44.139Z,29.04
2018-04-22T12:22:44.203Z,28.99
2018-04-22T12:23:44.234Z,29.08
2018-04-22T12:24:44.227Z,29.17
2018-04-22T12:25:44.265Z,29.25
2018-04-22T12:26:44.134Z,29.24
2018-04-22T12:27:44.209Z,29.09
2018-04-22T12:28:44.136Z,29.13
2018-04-22T12:29:44.193Z,29.04
2018-04-22T12:30:44.192Z,29.08
2018-04-22T12:31:44.259Z,29.14
2018-04-22T12:32:44.168Z,28.60
2018-04-22T12:33:44.223Z,28.39
2018-04-22T12:34:44.163Z,28.32
2018-04-22T12:35:44.109Z,28.09
2018-04-22T12:36:44.189Z,28.14
2018-04-22T12:37:44.217Z,28.20
2018-04-22T12:38:44.175Z,28.25
2018-04-22T12:39:44.171Z,28.57
2018-04-22T12:40:44.213Z,28.73
2018-04-22T12:41:44.217Z,28.95
2018-04-22T12:42:44.109Z,29.18
2018-04-22T12:43:44.135Z,28.97
2018-04-22T12:44:44.132Z,28.66
2018-04-22T12:45:44.116Z,28.55
2018-04-22T12:46:44.159Z,28.53
2018-04-22T12:47:44.172Z,28.43
2018-04-22T12:48:44.180Z,28.47
2018-04-22T12:49:44.115Z,28.64
2018-04-22T12:50:44.171Z,28.44
2018-04-22T12:51:44.223Z,28.32
2018-04-22T12:52:44.156Z,28.10
2018-04-22T12:53:44.284Z,28.26
2018-04-22T12:54:44.307Z,28.54
2018-04-22T12:55:44.287Z,28.80
2018-04-22T12:56:44.246Z,28.97
2018-04-22T12:57:44.291Z,29.17
2018-04-22T12:58:44.310Z,29.29
2018-04-22T12:59:44.190Z,29.28
2018-04-22T13:00:44.177Z,29.35
2018-04-22T13:01:44.211Z,29.32
2018-04-22T13:02:44.290Z,29.35
2018-04-22T13:03:44.217Z,29.28
2018-04-22T13:04:44.215Z,29.21